Skip Navigation Links
NOAA logo - Click to go to the NOAA homepage
NOAA's National Weather Service
Alaska Aviation Weather Unit
  NWS logo - Click to go to the NWS homepage
Left Navbar Graphic     15 AKDT = 23 GMT

   
NOAA is celebrating 200 years of science, service, and stewardship. Visit the NOAA 200th celebration Web site to learn more.
USA.gov is the U.S. Government's official Web portal to all Federal, state and local government Web resources and services.
Facebook
NWS on Facebook

Important Change Regarding the AAWU Web Presence

 

Over the last several months, the AAWU has been working to navigate its webpages to a nationally supported server. Security, as well as other needs, have necessitated the change.  We have been given an extension for the site changeover while we diligently work at addressing feedback received. As of July 14, 2017, aawu.arh.noaa.gov will be discontinued. The new AAWU web address is weather.gov/aawu. It is now live and will run in-parallel with the old site until it is discontinued on July 14, 2017. Please continue to send any feedback or questions regarding the new webpages to nws.ar.aawu.webauthors@noaa.gov.  Thank you for your patience during this time of transition.
AAWU Home :: Display TAF Add Bookmark
TESTM WHMA2 191720Z AUTO 22015KT SKC M00/M12 A2914 RMK A02 SLP869 T10031116

TESTM WHMA2 191750Z AUTO 23014KT SKC M00/M12 A2915 RMK A02 SLP871 T10011124 PK WND 00027/0000

TESTM WHMA2 191820Z AUTO 24013KT SKC 00/M12 A2915 RMK A02 SLP870 T00011124 PK WND 00030/0000

TESTM WHMA2 191850Z AUTO 23017KT SKC 00/M14 A2916 RMK A02 SLP873 T00011136 PK WND 00030/0000

TESTM WHMA2 191920Z AUTO 23016KT SKC 00/M13 A2916 RMK A02 SLP874 T00011129 PK WND 00028/0000

TESTM WHMA2 191950Z AUTO 23016KT SKC 00/M13 A2915 RMK A02 SLP872 T00031131 PK WND 00027/0000

TESTM WHMA2 192020Z AUTO 23014KT SKC 01/M14 A2916 RMK A02 SLP874 T00061136 PK WND 00029/0000

TESTM WHMA2 192050Z AUTO 24015KT SKC 01/M13 A2916 RMK A02 SLP873 T00111130 PK WND 00029/0000

TESTM WHMA2 192120Z AUTO 27015KT SKC 01/M14 A2916 RMK A02 SLP874 T00141135 PK WND 00028/0000

TESTM WHMA2 192150Z AUTO 24011KT SKC 01/M14 A2916 RMK A02 SLP874 T00141144 PK WND 00028/0000

TESTM WHMA2 192220Z AUTO 24013KT SKC 01/M15 A2916 RMK A02 SLP874 T00131146 PK WND 00027/0000

TESTM WHMA2 192250Z AUTO 2408KT SKC 01/M14 A2916 RMK A02 SLP874 T00141139 PK WND 00027/0000

TESTM WHMA2 192320Z AUTO 23013KT SKC 01/M15 A2915 RMK A02 SLP871 T00121146 PK WND 00027/0000


NOAA's National Weather Service
Alaska Aviation Weather Unit
6930 Sand Lake Road
Anchorage, AK 99502-1845
Disclaimer
Credits
Glossary
Privacy Policy
About Us
Career Opportunities
Contact AAWU Internet Services Site last modified: April, 17th 2012